createdAt,value
2019-02-12T00:00:57.297Z,6.85
2019-02-12T00:05:02.970Z,6.77
2019-02-12T00:09:10.289Z,6.81
2019-02-12T00:13:15.978Z,6.85
2019-02-12T00:17:21.823Z,6.86
2019-02-12T00:21:28.476Z,6.88
2019-02-12T00:25:34.276Z,6.84
2019-02-12T00:29:39.916Z,6.78
2019-02-12T00:33:45.593Z,6.71
2019-02-12T00:37:51.314Z,6.60
2019-02-12T00:41:57.005Z,6.64
2019-02-12T00:46:02.687Z,6.68
2019-02-12T00:50:11.556Z,6.80
2019-02-12T00:54:18.207Z,6.85
2019-02-12T00:58:23.892Z,6.99
2019-02-12T01:02:29.561Z,7.08
2019-02-12T01:06:35.293Z,7.16
2019-02-12T01:10:41.031Z,7.16
2019-02-12T01:14:46.704Z,7.19
2019-02-12T01:18:52.370Z,7.17
2019-02-12T01:22:58.057Z,7.14
2019-02-12T01:27:03.741Z,7.12
2019-02-12T01:31:09.422Z,7.02
2019-02-12T01:35:15.136Z,6.97
2019-02-12T01:39:20.940Z,6.85
2019-02-12T01:43:26.637Z,6.71
2019-02-12T01:47:32.352Z,6.74
2019-02-12T01:51:38.047Z,6.64
2019-02-12T01:55:43.732Z,6.61
2019-02-12T01:59:49.405Z,6.63
2019-02-12T02:03:55.093Z,6.47
2019-02-12T02:08:00.792Z,6.56
2019-02-12T02:12:06.487Z,6.59
2019-02-12T02:16:12.157Z,6.59
2019-02-12T02:20:17.854Z,6.64
2019-02-12T02:24:25.188Z,6.59
2019-02-12T02:28:30.949Z,6.60
2019-02-12T02:32:36.617Z,6.63
2019-02-12T02:36:42.322Z,6.58
2019-02-12T02:40:48.013Z,6.51
2019-02-12T02:44:53.679Z,6.56
2019-02-12T02:48:59.400Z,6.60
2019-02-12T02:53:05.093Z,6.74
2019-02-12T02:57:10.757Z,6.74
2019-02-12T03:01:16.439Z,6.74
2019-02-12T03:05:22.163Z,6.78
2019-02-12T03:09:27.831Z,6.79
2019-02-12T03:13:33.877Z,6.85
2019-02-12T03:17:39.696Z,6.86
2019-02-12T03:21:45.382Z,6.85
2019-02-12T03:25:52.690Z,6.82
2019-02-12T03:29:58.354Z,6.71
2019-02-12T03:34:04.046Z,6.48
2019-02-12T03:38:09.701Z,6.55
2019-02-12T03:42:15.447Z,6.72
2019-02-12T03:46:21.277Z,6.74
2019-02-12T03:50:26.957Z,6.78
2019-02-12T03:54:32.705Z,6.80
2019-02-12T03:58:38.434Z,6.84
2019-02-12T04:03:07.987Z,6.93
2019-02-12T04:07:13.668Z,6.95
2019-02-12T04:11:19.415Z,6.93
2019-02-12T04:15:25.184Z,6.91
2019-02-12T04:19:30.877Z,6.80
2019-02-12T04:23:36.702Z,6.82
2019-02-12T04:27:43.521Z,6.76
2019-02-12T04:31:49.202Z,6.80
2019-02-12T04:35:54.856Z,6.75
2019-02-12T04:40:00.532Z,6.79
2019-02-12T04:44:06.210Z,6.81
2019-02-12T04:48:11.885Z,6.71
2019-02-12T04:52:17.569Z,6.81
2019-02-12T04:56:23.274Z,6.80
2019-02-12T05:00:30.619Z,6.77
2019-02-12T05:04:36.319Z,6.75
2019-02-12T05:09:15.226Z,6.84
2019-02-12T05:13:20.919Z,6.86
2019-02-12T05:17:26.609Z,6.81
2019-02-12T05:21:32.295Z,6.79
2019-02-12T05:25:38.065Z,6.80
2019-02-12T05:29:43.751Z,6.75
2019-02-12T05:33:49.460Z,6.77
2019-02-12T05:37:55.180Z,6.74
2019-02-12T05:42:00.839Z,6.79
2019-02-12T05:46:06.528Z,6.84
2019-02-12T05:50:15.384Z,6.83
2019-02-12T05:54:21.118Z,6.89
2019-02-12T05:58:26.805Z,6.95
2019-02-12T06:02:32.471Z,6.96
2019-02-12T06:06:38.159Z,6.95
2019-02-12T06:10:46.039Z,6.99
2019-02-12T06:14:51.725Z,6.97
2019-02-12T06:18:57.438Z,7.00
2019-02-12T06:23:04.241Z,7.04
2019-02-12T06:27:10.089Z,7.00
2019-02-12T06:31:15.780Z,6.96
2019-02-12T06:35:21.529Z,6.85
2019-02-12T06:39:27.201Z,6.86
2019-02-12T06:43:32.896Z,6.89
2019-02-12T06:47:38.579Z,6.92
2019-02-12T06:51:44.365Z,6.91
2019-02-12T06:55:50.047Z,6.91
2019-02-12T06:59:55.729Z,6.95
2019-02-12T07:04:01.447Z,7.01
2019-02-12T07:08:31.312Z,7.00
2019-02-12T07:12:56.514Z,7.02
2019-02-12T07:17:09.338Z,7.04
2019-02-12T07:21:46.596Z,7.06
2019-02-12T07:26:02.505Z,6.98
2019-02-12T07:30:36.508Z,6.88
2019-02-12T07:34:58.831Z,7.01
2019-02-12T07:39:27.099Z,7.10
2019-02-12T07:44:05.588Z,7.04
2019-02-12T07:48:50.404Z,6.92
2019-02-12T07:53:15.543Z,6.98
2019-02-12T07:57:49.889Z,7.18
2019-02-12T08:02:05.684Z,7.22
2019-02-12T08:06:36.476Z,7.27
2019-02-12T08:11:21.259Z,7.30
2019-02-12T08:15:48.876Z,7.45
2019-02-12T08:20:21.504Z,7.58
2019-02-12T08:24:47.689Z,7.68
2019-02-12T08:29:30.261Z,7.84
2019-02-12T08:34:04.662Z,8.11
2019-02-12T08:38:26.494Z,8.24
2019-02-12T08:42:48.671Z,8.46
2019-02-12T08:47:15.174Z,8.63
2019-02-12T08:51:34.231Z,8.60
2019-02-12T08:56:10.831Z,8.48
2019-02-12T09:00:26.853Z,8.29
2019-02-12T09:04:39.835Z,8.28
2019-02-12T09:09:07.760Z,8.40
2019-02-12T09:13:32.760Z,8.46
2019-02-12T09:18:14.195Z,8.51
2019-02-12T09:22:48.225Z,8.86
2019-02-12T09:27:04.043Z,9.08
2019-02-12T09:31:39.474Z,8.95
2019-02-12T09:36:03.002Z,9.08
2019-02-12T09:40:46.316Z,9.25
2019-02-12T09:45:14.299Z,9.72
2019-02-12T09:49:55.701Z,9.98
2019-02-12T09:54:32.665Z,9.78
2019-02-12T09:59:04.803Z,10.16
2019-02-12T10:03:40.519Z,10.00
2019-02-12T10:08:19.406Z,10.29
2019-02-12T10:12:41.888Z,10.49
2019-02-12T10:16:58.116Z,11.17
2019-02-12T10:21:32.184Z,11.97
2019-02-12T10:25:38.061Z,11.94
2019-02-12T10:29:59.987Z,11.62
2019-02-12T10:34:06.042Z,11.76
2019-02-12T10:42:17.468Z,11.44
2019-02-12T10:46:23.175Z,10.82
2019-02-12T10:50:28.942Z,10.50
2019-02-12T10:54:34.635Z,10.09
2019-02-12T10:58:41.321Z,10.02
2019-02-12T11:02:55.384Z,10.03
2019-02-12T11:07:01.082Z,9.88
2019-02-12T11:11:06.850Z,10.07
2019-02-12T11:15:12.761Z,10.27
2019-02-12T11:19:18.440Z,10.22
2019-02-12T11:23:24.156Z,10.39
2019-02-12T11:27:29.874Z,11.18
2019-02-12T11:31:35.565Z,12.74
2019-02-12T11:35:41.562Z,14.85
2019-02-12T11:39:47.251Z,13.90
2019-02-12T11:43:54.595Z,12.70
2019-02-12T11:48:02.466Z,11.86
2019-02-12T11:52:08.259Z,10.61
2019-02-12T11:56:13.925Z,9.98
2019-02-12T12:00:21.268Z,10.00
2019-02-12T12:04:26.960Z,10.04
2019-02-12T12:08:35.051Z,10.28
2019-02-12T12:12:40.835Z,10.47
2019-02-12T12:16:46.524Z,10.52
2019-02-12T12:20:52.222Z,10.97
2019-02-12T12:24:57.935Z,11.99
2019-02-12T12:29:03.637Z,11.90
2019-02-12T12:33:09.658Z,11.30
2019-02-12T12:37:15.393Z,10.63
2019-02-12T12:41:21.079Z,10.40
2019-02-12T12:45:26.863Z,10.36
2019-02-12T12:49:32.558Z,10.44
2019-02-12T12:53:38.271Z,10.70
2019-02-12T12:57:43.974Z,10.59
2019-02-12T13:01:49.697Z,10.50
2019-02-12T13:05:56.626Z,10.45
2019-02-12T13:10:02.302Z,10.47
2019-02-12T13:14:07.982Z,10.59
2019-02-12T13:18:13.676Z,10.90
2019-02-12T13:22:19.372Z,11.06
2019-02-12T13:26:25.188Z,10.92
2019-02-12T13:30:30.858Z,10.41
2019-02-12T13:34:36.537Z,10.50
2019-02-12T13:38:42.237Z,10.61
2019-02-12T13:42:47.941Z,10.33
2019-02-12T13:46:53.653Z,10.33
2019-02-12T13:50:59.363Z,10.32
2019-02-12T13:55:07.621Z,10.61
2019-02-12T13:59:13.314Z,10.34
2019-02-12T14:03:22.531Z,10.49
2019-02-12T14:07:27.771Z,10.78
2019-02-12T14:11:33.453Z,10.87
2019-02-12T14:15:39.228Z,11.03
2019-02-12T14:19:44.910Z,10.86
2019-02-12T14:23:50.623Z,10.70
2019-02-12T14:27:57.961Z,10.36
2019-02-12T14:32:03.741Z,10.26
2019-02-12T14:36:09.505Z,10.40
2019-02-12T14:40:17.103Z,10.55
2019-02-12T14:44:22.791Z,10.62
2019-02-12T14:48:28.494Z,10.52
2019-02-12T14:52:34.215Z,10.40
2019-02-12T14:56:39.929Z,10.31
2019-02-12T15:00:45.625Z,10.45
2019-02-12T15:04:51.323Z,10.51
2019-02-12T15:08:57.025Z,10.47
2019-02-12T15:13:02.713Z,10.37
2019-02-12T15:17:08.427Z,10.41
2019-02-12T15:21:14.208Z,10.46
2019-02-12T15:25:19.961Z,10.52
2019-02-12T15:29:25.688Z,10.58
2019-02-12T15:33:31.399Z,10.43
2019-02-12T15:37:37.096Z,10.21
2019-02-12T15:41:42.804Z,10.03
2019-02-12T15:45:48.492Z,9.66
2019-02-12T15:49:54.213Z,9.56
2019-02-12T15:53:59.883Z,9.52
2019-02-12T15:58:06.318Z,9.53
2019-02-12T16:02:13.682Z,9.51
2019-02-12T16:06:21.042Z,9.53
2019-02-12T16:10:26.896Z,9.57
2019-02-12T16:14:33.779Z,9.52
2019-02-12T16:18:39.575Z,9.43
2019-02-12T16:22:45.352Z,9.28
2019-02-12T16:26:52.302Z,9.15
2019-02-12T16:30:57.969Z,9.14
2019-02-12T16:35:04.321Z,9.20
2019-02-12T16:39:10.012Z,9.12
2019-02-12T16:43:18.637Z,9.02
2019-02-12T16:47:24.438Z,9.08
2019-02-12T16:52:20.811Z,9.14
2019-02-12T16:56:26.406Z,9.21
2019-02-12T17:01:18.009Z,9.21
2019-02-12T17:05:24.735Z,9.11
2019-02-12T17:10:15.179Z,8.97
2019-02-12T17:14:20.974Z,8.97
2019-02-12T17:18:26.982Z,8.81
2019-02-12T17:22:32.643Z,8.65
2019-02-12T17:26:38.347Z,8.59
2019-02-12T17:31:18.815Z,8.78
2019-02-12T17:35:24.946Z,8.89
2019-02-12T17:39:30.729Z,9.00
2019-02-12T17:43:36.438Z,9.05
2019-02-12T17:47:42.118Z,9.03
2019-02-12T17:52:17.727Z,8.97
2019-02-12T17:56:24.963Z,9.00
2019-02-12T18:00:37.197Z,8.93
2019-02-12T18:05:19.537Z,8.85
2019-02-12T18:09:26.068Z,8.81
2019-02-12T18:13:33.762Z,8.79
2019-02-12T18:17:40.882Z,8.77
2019-02-12T18:22:17.703Z,8.73
2019-02-12T18:26:23.433Z,8.75
2019-02-12T18:35:41.499Z,8.55
2019-02-12T18:39:47.175Z,8.60
2019-02-12T18:43:52.943Z,8.58
2019-02-12T18:47:58.660Z,8.60
2019-02-12T18:52:04.517Z,8.66
2019-02-12T18:56:10.283Z,8.77
2019-02-12T19:00:21.443Z,8.52
2019-02-12T19:04:27.384Z,8.27
2019-02-12T19:08:33.138Z,8.13
2019-02-12T19:12:39.567Z,8.22
2019-02-12T19:16:47.049Z,8.28
2019-02-12T19:20:52.818Z,8.50
2019-02-12T19:24:58.589Z,8.64
2019-02-12T19:29:04.334Z,8.80
2019-02-12T19:33:10.111Z,8.76
2019-02-12T19:37:15.888Z,8.53
2019-02-12T19:41:21.655Z,8.48
2019-02-12T19:45:27.528Z,8.66
2019-02-12T19:49:36.292Z,8.66
2019-02-12T19:54:19.686Z,8.82
2019-02-12T19:58:25.636Z,8.99
2019-02-12T20:03:16.712Z,8.91
2019-02-12T20:07:22.519Z,8.91
2019-02-12T20:12:16.294Z,8.49
2019-02-12T20:16:22.048Z,8.26
2019-02-12T20:21:16.049Z,8.04
2019-02-12T20:25:21.825Z,8.01
2019-02-12T20:30:15.144Z,7.94
2019-02-12T20:34:20.823Z,7.97
2019-02-12T20:43:20.249Z,8.28
2019-02-12T20:47:26.173Z,8.33
2019-02-12T20:51:31.853Z,8.33
2019-02-12T20:55:40.590Z,8.32
2019-02-12T21:00:22.488Z,8.23
2019-02-12T21:04:28.351Z,7.97
2019-02-12T21:09:15.966Z,7.79
2019-02-12T21:13:21.676Z,7.65
2019-02-12T21:17:27.577Z,7.44
2019-02-12T21:21:33.368Z,7.33
2019-02-12T21:25:39.837Z,7.37
2019-02-12T21:30:19.855Z,7.41
2019-02-12T21:34:25.660Z,7.33
2019-02-12T21:38:31.572Z,7.22
2019-02-12T21:42:38.627Z,7.24
2019-02-12T21:46:44.337Z,7.41
2019-02-12T21:51:19.450Z,7.56
2019-02-12T21:55:25.787Z,7.47
2019-02-12T21:59:31.494Z,7.30
2019-02-12T22:03:39.172Z,7.14
2019-02-12T22:07:46.882Z,7.37
2019-02-12T22:12:19.454Z,7.56
2019-02-12T22:16:25.266Z,7.54
2019-02-12T22:20:30.955Z,7.62
2019-02-12T22:24:38.251Z,7.64
2019-02-12T22:28:43.933Z,7.65
2019-02-12T22:33:07.734Z,7.56
2019-02-12T22:37:13.427Z,7.66
2019-02-12T22:41:19.117Z,7.62
2019-02-12T22:45:26.302Z,7.59
2019-02-12T22:49:32.163Z,7.52
2019-02-12T22:53:37.895Z,7.39
2019-02-12T22:57:49.423Z,7.28
2019-02-12T23:01:54.038Z,7.31
2019-02-12T23:06:00.017Z,7.31
2019-02-12T23:10:08.958Z,7.24
2019-02-12T23:14:14.837Z,7.24
2019-02-12T23:18:20.527Z,7.28
2019-02-12T23:22:26.222Z,7.16
2019-02-12T23:26:32.096Z,6.92
2019-02-12T23:30:37.873Z,6.65
2019-02-12T23:34:43.618Z,6.21
2019-02-12T23:38:49.300Z,6.34
2019-02-12T23:42:56.064Z,6.52
2019-02-12T23:47:01.757Z,6.47
2019-02-12T23:51:07.443Z,6.40
2019-02-12T23:55:13.128Z,6.02
2019-02-12T23:59:18.827Z,5.82
